Saint Marys, Indiana
Current Conditions -  °F | °C
As of 9:54 AM on Wednesday 22 Oct 2014 (Local Time) from KSBN Reporting Station
Clear Clear  
Wind Chill: 39°   Ceiling: Unl
Heat Index: 42°   Visibility: 10mi
Dew Point: 36°   Wind: 5mph
Humidity: 79%   Direction: NA
Pressure: 30.36"   Gusts: NA
Location:  41.7197°N, 86.2504°W
Report Text: KSBN 221354Z VRB04KT 10SM CLR 06/02 A3036 RMK AO2 SLP289 T00560022
Loading
Personal Weather Stations






























Interactive Weather Map
Tropical Storm Tracking
New forecast layout! Learn more

10-Day Weather Forecast

Advertisements
Track Severe Weather on mobile